Time;durP1;ratioP1;P1;durP2;ratioP2;P2;SDS_P1;SDS_P2;PMS_P1;PMS_P2;Temp;Humidity;BMP_temperature;BMP_pressure;BME280_temperature;BME280_humidity;BME280_pressure;Samples;Min_cycle;Max_cycle;Signal;HPM_P1;HPM_P2
2022/09/27 00:02:21;;;;;;;3.40;3.10;;;12.20;99.90;;;;;;5093816;28;20816;-68
2022/09/27 00:04:48;;;;;;;4.00;3.10;;;12.20;99.90;;;;;;5094038;28;20473;-69
2022/09/27 00:07:15;;;;;;;8.10;3.60;;;12.20;99.90;;;;;;5093953;28;20447;-68
2022/09/27 00:09:41;;;;;;;4.97;3.40;;;12.10;99.90;;;;;;5093727;28;20513;-68
2022/09/27 00:12:09;;;;;;;3.80;3.40;;;12.10;99.90;;;;;;5093777;28;20502;-68
2022/09/27 00:14:36;;;;;;;7.40;4.57;;;12.20;99.90;;;;;;5093515;28;20489;-69
2022/09/27 00:17:04;;;;;;;5.80;3.20;;;12.10;99.90;;;;;;5093873;28;20941;-68
2022/09/27 00:19:31;;;;;;;3.60;3.13;;;12.10;99.90;;;;;;5094353;28;20457;-68
2022/09/27 00:22:00;;;;;;;4.80;3.37;;;12.10;99.90;;;;;;5094435;28;21015;-68
2022/09/27 00:24:27;;;;;;;8.00;3.10;;;12.10;99.90;;;;;;5094649;28;20482;-69
2022/09/27 00:26:57;;;;;;;5.97;3.23;;;12.00;99.90;;;;;;5095343;28;20455;-68
2022/09/27 00:29:23;;;;;;;3.70;2.57;;;12.00;99.90;;;;;;5095246;28;20453;-68
2022/09/27 00:31:50;;;;;;;6.23;3.10;;;12.00;99.90;;;;;;5094596;28;20454;-68
2022/09/27 00:34:22;;;;;;;3.80;2.50;;;12.00;99.90;;;;;;5094664;28;20576;-68
2022/09/27 00:36:50;;;;;;;2.20;2.00;;;12.00;99.90;;;;;;5093560;28;20475;-68
2022/09/27 00:39:17;;;;;;;3.80;2.83;;;11.90;99.90;;;;;;5093198;28;20548;-69
2022/09/27 00:41:45;;;;;;;4.90;2.93;;;11.90;99.90;;;;;;5093617;28;20532;-68
2022/09/27 00:44:49;;;;;;;8.73;3.87;;;11.80;99.90;;;;;;5093490;28;20457;-68
2022/09/27 00:47:24;;;;;;;6.17;3.30;;;11.80;99.90;;;;;;5093260;28;20936;-68
2022/09/27 00:49:57;;;;;;;5.40;3.10;;;11.80;99.90;;;;;;5093451;28;20437;-68
2022/09/27 00:52:29;;;;;;;5.63;2.97;;;11.80;99.90;;;;;;5093495;28;20446;-68
2022/09/27 00:55:03;;;;;;;4.47;2.63;;;11.80;99.90;;;;;;5093371;28;20490;-68
2022/09/27 00:57:30;;;;;;;5.37;2.70;;;11.70;99.90;;;;;;5093429;28;20796;-68
2022/09/27 01:00:02;;;;;;;3.60;2.40;;;11.80;99.90;;;;;;5093178;28;21028;-68
2022/09/27 01:02:29;;;;;;;5.50;2.40;;;11.80;99.90;;;;;;5093052;28;20438;-68
2022/09/27 01:04:58;;;;;;;2.37;2.17;;;11.80;99.90;;;;;;5093386;28;20468;-69
2022/09/27 01:07:25;;;;;;;5.40;2.90;;;11.80;99.90;;;;;;5093034;28;21034;-69
2022/09/27 01:09:52;;;;;;;4.60;3.07;;;11.80;99.90;;;;;;5093338;28;20538;-69
2022/09/27 01:12:28;;;;;;;10.43;3.50;;;11.80;99.90;;;;;;5096000;28;20526;-69
2022/09/27 01:15:11;;;;;;;5.83;4.27;;;11.70;99.90;;;;;;5096949;28;21000;-68
2022/09/27 01:17:51;;;;;;;5.60;3.20;;;11.70;99.90;;;;;;5097065;28;20909;-68
2022/09/27 01:20:52;;;;;;;7.30;4.63;;;11.70;99.90;;;;;;5097641;28;20446;-68
2022/09/27 01:23:47;;;;;;;8.80;5.73;;;11.70;99.90;;;;;;5098835;28;20904;-68
2022/09/27 01:26:30;;;;;;;10.30;5.20;;;11.70;99.90;;;;;;5100640;28;20511;-68
2022/09/27 01:29:04;;;;;;;6.63;5.83;;;11.80;99.90;;;;;;5098734;28;20439;-69
2022/09/27 01:31:36;;;;;;;7.83;5.47;;;11.70;99.90;;;;;;5097739;28;20427;-68
2022/09/27 01:34:07;;;;;;;7.90;5.90;;;11.70;99.90;;;;;;5096903;28;21053;-68
2022/09/27 01:36:43;;;;;;;7.23;6.03;;;11.70;99.90;;;;;;5097068;28;20471;-68
2022/09/27 01:39:22;;;;;;;10.33;6.87;;;11.80;99.90;;;;;;5096814;28;20464;-69
2022/09/27 01:41:59;;;;;;;12.50;6.40;;;11.70;99.90;;;;;;5096409;28;20908;-69
2022/09/27 01:44:33;;;;;;;10.67;7.13;;;11.70;99.90;;;;;;5096644;28;20441;-69
2022/09/27 01:47:04;;;;;;;10.63;6.87;;;11.60;99.90;;;;;;5096532;28;20518;-69
2022/09/27 01:49:35;;;;;;;7.07;6.20;;;11.70;99.90;;;;;;5096453;28;20478;-69
2022/09/27 01:52:06;;;;;;;9.13;6.90;;;11.70;99.90;;;;;;5096473;28;20864;-69
2022/09/27 01:54:39;;;;;;;7.00;6.40;;;11.60;99.90;;;;;;5096291;28;20477;-69
2022/09/27 01:57:09;;;;;;;7.60;6.53;;;11.60;99.90;;;;;;5096441;28;20500;-69
2022/09/27 01:59:42;;;;;;;10.37;6.80;;;11.60;99.90;;;;;;5096332;28;20494;-68
2022/09/27 02:02:12;;;;;;;6.10;5.40;;;11.60;99.90;;;;;;5096269;28;20787;-69
2022/09/27 02:04:42;;;;;;;6.80;5.40;;;11.60;99.90;;;;;;5095850;28;20934;-69
2022/09/27 02:07:12;;;;;;;5.83;4.90;;;11.60;99.90;;;;;;5096084;28;20538;-70
2022/09/27 02:09:42;;;;;;;9.50;5.67;;;11.60;99.90;;;;;;5096085;28;20459;-69
2022/09/27 02:12:13;;;;;;;7.93;5.60;;;11.60;99.90;;;;;;5096038;28;20480;-69
2022/09/27 02:14:45;;;;;;;7.70;4.80;;;11.60;99.90;;;;;;5095674;28;20553;-69
2022/09/27 02:17:22;;;;;;;6.90;5.03;;;11.60;99.90;;;;;;5095910;28;20500;-68
2022/09/27 02:19:57;;;;;;;5.93;4.50;;;11.60;99.90;;;;;;5095736;28;20439;-68
2022/09/27 02:22:31;;;;;;;4.87;4.43;;;11.60;99.90;;;;;;5095660;28;20439;-68
2022/09/27 02:25:02;;;;;;;4.77;4.23;;;11.60;99.90;;;;;;5095669;28;20484;-69
2022/09/27 02:27:32;;;;;;;5.00;3.77;;;11.60;99.90;;;;;;5095771;28;20792;-68
2022/09/27 02:30:05;;;;;;;3.87;3.57;;;11.60;99.90;;;;;;5095581;28;20462;-69
2022/09/27 02:32:34;;;;;;;4.20;3.80;;;11.60;99.90;;;;;;5095666;28;20792;-69
2022/09/27 02:35:07;;;;;;;3.40;2.90;;;11.60;99.90;;;;;;5095022;28;20502;-69
2022/09/27 02:37:34;;;;;;;3.17;2.83;;;11.60;99.90;;;;;;5095186;28;20513;-69
2022/09/27 02:40:03;;;;;;;3.67;3.37;;;11.50;99.90;;;;;;5095263;28;20549;-69
2022/09/27 02:42:31;;;;;;;3.20;2.90;;;11.50;99.90;;;;;;5095718;28;20542;-69
2022/09/27 02:44:58;;;;;;;3.07;2.60;;;11.40;99.90;;;;;;5095400;28;20566;-69
2022/09/27 02:47:36;;;;;;;2.93;2.63;;;11.40;99.90;;;;;;5095455;28;20473;-69
2022/09/27 02:50:28;;;;;;;3.67;2.73;;;11.30;99.90;;;;;;5095428;28;20509;-69
2022/09/27 02:53:06;;;;;;;3.77;2.07;;;11.30;99.90;;;;;;5095005;28;20441;-68
2022/09/27 02:55:45;;;;;;;3.50;2.10;;;11.30;99.90;;;;;;5094825;28;20509;-69
2022/09/27 02:58:20;;;;;;;3.20;1.80;;;11.30;99.90;;;;;;5095364;28;20446;-69
2022/09/27 03:00:53;;;;;;;2.40;1.53;;;11.30;99.90;;;;;;5095340;28;20440;-69
2022/09/27 03:03:25;;;;;;;2.20;1.10;;;11.20;99.90;;;;;;5094983;28;20428;-69
2022/09/27 03:05:59;;;;;;;2.00;1.30;;;11.20;99.90;;;;;;5095424;28;20474;-69
2022/09/27 03:08:26;;;;;;;2.93;1.40;;;11.20;99.90;;;;;;5095301;28;20515;-69
2022/09/27 03:10:53;;;;;;;3.80;1.40;;;11.10;99.90;;;;;;5095878;28;20537;-69
2022/09/27 03:13:20;;;;;;;6.63;1.47;;;11.10;99.90;;;;;;5095678;28;20446;-68
2022/09/27 03:15:47;;;;;;;4.40;1.97;;;11.10;99.90;;;;;;5096120;28;20560;-68
2022/09/27 03:18:13;;;;;;;6.90;1.90;;;11.00;99.90;;;;;;5096098;28;20446;-69
2022/09/27 03:20:40;;;;;;;4.33;2.23;;;11.00;99.90;;;;;;5096386;28;20533;-69
2022/09/27 03:23:08;;;;;;;4.20;2.40;;;11.00;99.90;;;;;;5095649;28;20996;-69
2022/09/27 03:25:35;;;;;;;3.00;2.70;;;11.00;99.90;;;;;;5095326;28;20561;-69
2022/09/27 03:28:02;;;;;;;3.30;3.00;;;11.00;99.90;;;;;;5094782;28;20458;-68
2022/09/27 03:30:29;;;;;;;4.83;3.27;;;10.90;99.90;;;;;;5094728;28;20790;-68
2022/09/27 03:32:56;;;;;;;4.53;2.30;;;10.90;99.90;;;;;;5094642;28;20535;-69
2022/09/27 03:35:22;;;;;;;4.73;3.50;;;10.90;99.90;;;;;;5093346;28;21007;-69
2022/09/27 03:37:49;;;;;;;5.97;3.03;;;10.90;99.90;;;;;;5094302;28;20999;-69
2022/09/27 03:40:18;;;;;;;7.77;2.80;;;10.90;99.90;;;;;;5094090;28;20501;-70
2022/09/27 03:42:44;;;;;;;3.40;2.10;;;10.90;99.90;;;;;;5094168;28;20544;-69
2022/09/27 03:45:12;;;;;;;3.93;2.33;;;10.80;99.90;;;;;;5094490;28;20506;-69
2022/09/27 03:47:41;;;;;;;4.57;2.13;;;10.80;99.90;;;;;;5094517;28;20451;-69
2022/09/27 03:50:09;;;;;;;2.50;1.67;;;10.80;99.90;;;;;;5094963;28;20453;-69
2022/09/27 03:52:36;;;;;;;2.50;1.90;;;10.80;99.90;;;;;;5096127;28;20491;-68
2022/09/27 03:55:04;;;;;;;3.40;1.70;;;10.80;99.90;;;;;;5100221;28;20509;-68
2022/09/27 03:57:32;;;;;;;3.03;1.23;;;10.80;99.90;;;;;;5101362;28;21021;-69
2022/09/27 03:59:59;;;;;;;2.70;1.57;;;10.80;99.90;;;;;;5098466;28;20449;-69
2022/09/27 04:02:27;;;;;;;3.00;1.70;;;10.70;99.90;;;;;;5096193;28;20470;-69
2022/09/27 04:04:53;;;;;;;6.73;1.73;;;10.70;99.90;;;;;;5094273;28;20967;-69
2022/09/27 04:07:20;;;;;;;2.40;1.23;;;10.70;99.90;;;;;;5093600;28;20450;-69
2022/09/27 04:09:47;;;;;;;2.20;1.30;;;10.70;99.90;;;;;;5094460;28;20789;-68
2022/09/27 04:12:14;;;;;;;3.17;1.40;;;10.70;99.90;;;;;;5093861;28;20535;-68
2022/09/27 04:14:42;;;;;;;3.50;1.40;;;10.70;99.90;;;;;;5093404;28;20545;-69
2022/09/27 04:17:09;;;;;;;3.73;1.20;;;10.70;99.90;;;;;;5093717;28;20448;-69
2022/09/27 04:19:36;;;;;;;2.40;1.60;;;10.70;99.90;;;;;;5093717;28;20450;-68
2022/09/27 04:22:03;;;;;;;4.23;1.37;;;10.70;99.90;;;;;;5093833;28;20438;-68
2022/09/27 04:24:31;;;;;;;2.40;1.63;;;10.70;99.90;;;;;;5093636;28;20436;-69
2022/09/27 04:26:58;;;;;;;6.37;2.30;;;10.70;99.90;;;;;;5093430;28;20543;-69
2022/09/27 04:29:25;;;;;;;2.80;1.60;;;10.70;99.90;;;;;;5093740;28;20536;-69
2022/09/27 04:31:54;;;;;;;2.83;1.93;;;10.60;99.90;;;;;;5093592;28;20527;-68
2022/09/27 04:36:25;;;;;;;3.93;1.77;;;10.70;99.90;;;;;;5093299;28;20484;-68
2022/09/27 04:37:07;;;;;;;6.03;1.97;;;10.70;99.90;;;;;;5093200;28;20509;-69
2022/09/27 04:39:35;;;;;;;4.87;1.60;;;10.70;99.90;;;;;;5093245;28;20875;-69
2022/09/27 04:42:02;;;;;;;3.80;1.60;;;10.60;99.90;;;;;;5093538;28;20225;-69
2022/09/27 04:44:29;;;;;;;2.20;1.30;;;10.60;99.90;;;;;;5093402;28;20449;-69
2022/09/27 04:46:57;;;;;;;4.87;1.63;;;10.60;99.90;;;;;;5097114;28;21008;-69
2022/09/27 04:49:24;;;;;;;5.77;1.50;;;10.60;99.90;;;;;;5097418;28;20480;-68
2022/09/27 04:51:51;;;;;;;2.23;1.10;;;10.70;99.90;;;;;;5097371;28;20798;-69
2022/09/27 04:54:18;;;;;;;2.10;1.10;;;10.70;99.90;;;;;;5098201;28;20497;-68
2022/09/27 04:56:45;;;;;;;1.43;1.17;;;10.70;99.90;;;;;;5097447;28;20471;-68
2022/09/27 04:59:11;;;;;;;5.73;1.50;;;10.70;99.90;;;;;;5097112;28;20962;-69
2022/09/27 05:01:38;;;;;;;3.47;1.10;;;10.70;99.90;;;;;;5097179;28;20535;-69
2022/09/27 05:04:07;;;;;;;2.40;0.87;;;10.70;99.90;;;;;;5097175;28;20437;-68
2022/09/27 05:06:33;;;;;;;3.97;1.27;;;10.60;99.90;;;;;;5097407;28;20580;-68
2022/09/27 05:09:00;;;;;;;4.73;1.00;;;10.60;99.90;;;;;;5097273;28;20481;-70
2022/09/27 05:11:27;;;;;;;3.43;1.00;;;10.60;99.90;;;;;;5097232;28;20496;-70
2022/09/27 05:13:54;;;;;;;2.80;1.10;;;10.60;99.90;;;;;;5097180;28;20483;-70
2022/09/27 05:16:21;;;;;;;3.10;1.10;;;10.60;99.90;;;;;;5097126;28;20561;-70
2022/09/27 05:18:48;;;;;;;2.23;0.90;;;10.50;99.90;;;;;;5096773;28;20947;-70
2022/09/27 05:21:16;;;;;;;4.87;1.10;;;10.50;99.90;;;;;;5097266;28;20543;-70
2022/09/27 05:23:43;;;;;;;2.73;0.93;;;10.50;99.90;;;;;;5096670;28;20451;-70
2022/09/27 05:26:10;;;;;;;2.23;1.20;;;10.50;99.90;;;;;;5097034;28;20548;-70
2022/09/27 05:28:37;;;;;;;4.17;1.63;;;10.50;99.90;;;;;;5096694;28;20465;-68
2022/09/27 05:31:04;;;;;;;4.23;1.30;;;10.50;99.90;;;;;;5096432;28;20546;-68
2022/09/27 05:33:33;;;;;;;5.90;1.23;;;10.50;99.90;;;;;;5096846;28;20461;-68
2022/09/27 05:36:01;;;;;;;3.53;1.30;;;10.50;99.90;;;;;;5097165;28;20521;-69
2022/09/27 05:38:29;;;;;;;4.13;1.30;;;10.50;99.90;;;;;;5096389;28;20460;-69
2022/09/27 05:40:56;;;;;;;3.67;1.33;;;10.50;99.90;;;;;;5096852;28;20468;-69
2022/09/27 05:43:23;;;;;;;4.00;1.23;;;10.60;99.90;;;;;;5096718;28;20487;-68
2022/09/27 05:45:51;;;;;;;2.13;1.30;;;10.60;99.90;;;;;;5096683;28;20488;-69
2022/09/27 05:48:18;;;;;;;4.00;1.77;;;10.60;99.90;;;;;;5096542;28;20476;-70
2022/09/27 05:50:45;;;;;;;3.30;1.47;;;10.60;99.90;;;;;;5096600;28;20499;-70
2022/09/27 05:53:12;;;;;;;4.30;1.67;;;10.60;99.90;;;;;;5096478;28;20539;-69
2022/09/27 05:55:41;;;;;;;3.47;1.30;;;10.60;99.90;;;;;;5096576;28;20492;-70
2022/09/27 05:58:10;;;;;;;3.83;1.07;;;10.60;99.90;;;;;;5095946;28;20480;-70
2022/09/27 06:00:38;;;;;;;5.83;1.53;;;10.70;99.90;;;;;;5096742;28;20453;-70
2022/09/27 06:03:06;;;;;;;1.73;1.10;;;10.70;99.90;;;;;;5096807;28;20536;-70
2022/09/27 06:05:36;;;;;;;5.07;1.90;;;10.80;99.90;;;;;;5097183;28;20535;-69
2022/09/27 06:08:05;;;;;;;5.60;1.47;;;10.80;99.90;;;;;;5097373;28;20524;-70
2022/09/27 06:10:32;;;;;;;2.30;1.17;;;10.70;99.90;;;;;;5097339;28;20438;-70
2022/09/27 06:13:05;;;;;;;2.33;1.60;;;10.70;99.90;;;;;;5097595;28;20546;-70
2022/09/27 06:15:33;;;;;;;3.60;1.70;;;10.70;99.90;;;;;;5096908;28;20488;-70
2022/09/27 06:18:04;;;;;;;3.77;2.37;;;10.80;99.90;;;;;;5097113;28;20446;-70
2022/09/27 06:20:31;;;;;;;5.00;2.10;;;10.80;99.90;;;;;;5097994;28;20480;-70
2022/09/27 06:23:04;;;;;;;4.57;2.00;;;10.80;99.90;;;;;;5097862;28;20446;-70
2022/09/27 06:25:31;;;;;;;3.67;2.10;;;10.90;99.90;;;;;;5111445;28;20534;-70
2022/09/27 06:27:58;;;;;;;4.57;1.67;;;10.90;99.90;;;;;;5120091;28;20438;-70
2022/09/27 06:30:26;;;;;;;4.73;2.00;;;10.90;99.90;;;;;;5102954;28;20433;-69
2022/09/27 06:32:57;;;;;;;3.43;2.10;;;10.90;99.90;;;;;;5096305;28;20504;-69
2022/09/27 06:35:24;;;;;;;3.33;2.17;;;10.80;99.90;;;;;;5095691;28;20490;-70
2022/09/27 06:37:51;;;;;;;1.63;1.53;;;10.80;99.90;;;;;;5095023;28;21032;-70
2022/09/27 06:40:18;;;;;;;3.20;2.07;;;10.80;99.90;;;;;;5095285;28;20458;-71
2022/09/27 06:42:46;;;;;;;3.40;1.97;;;10.80;99.90;;;;;;5095546;28;20518;-69
2022/09/27 06:45:13;;;;;;;3.67;1.30;;;10.90;99.90;;;;;;5096123;28;20552;-70
2022/09/27 06:47:41;;;;;;;2.70;1.50;;;11.00;99.90;;;;;;5095608;28;20815;-70
2022/09/27 06:50:09;;;;;;;3.03;1.03;;;11.00;99.90;;;;;;5095825;28;20449;-70
2022/09/27 06:52:36;;;;;;;3.00;1.20;;;11.00;99.90;;;;;;5095436;28;20454;-70
2022/09/27 06:55:04;;;;;;;2.73;1.10;;;11.00;99.90;;;;;;5095192;28;20569;-69
2022/09/27 07:00:25;;;;;;;3.30;1.27;;;10.90;99.90;;;;;;5095227;28;20509;-70
2022/09/27 07:02:57;;;;;;;1.70;1.07;;;10.90;99.90;;;;;;5095281;28;20529;-70
2022/09/27 07:05:26;;;;;;;4.37;1.00;;;10.90;99.90;;;;;;5094866;28;20528;-69
2022/09/27 07:07:56;;;;;;;2.20;0.80;;;10.90;99.90;;;;;;5095027;28;20442;-70
2022/09/27 07:10:25;;;;;;;1.57;1.00;;;10.90;99.90;;;;;;5094289;28;20435;-69
2022/09/27 07:12:52;;;;;;;2.53;1.07;;;10.90;99.90;;;;;;5094744;28;20451;-69
2022/09/27 07:15:21;;;;;;;2.90;1.20;;;10.80;99.90;;;;;;5094507;28;21078;-68
2022/09/27 07:17:47;;;;;;;0.97;0.77;;;10.80;99.90;;;;;;5094969;28;20453;-68
2022/09/27 07:20:16;;;;;;;3.10;2.70;;;10.90;99.90;;;;;;5094949;28;20453;-68
2022/09/27 07:22:44;;;;;;;2.97;1.10;;;10.90;99.90;;;;;;5094826;28;20828;-68
2022/09/27 07:25:11;;;;;;;0.87;0.70;;;10.80;99.90;;;;;;5094672;28;20470;-69
2022/09/27 07:27:40;;;;;;;2.20;1.07;;;10.80;99.90;;;;;;5094494;28;20462;-68
2022/09/27 07:30:08;;;;;;;2.87;0.70;;;10.90;99.90;;;;;;5094801;28;20449;-68
2022/09/27 07:32:35;;;;;;;2.80;0.77;;;11.00;99.90;;;;;;5094700;28;20456;-67
2022/09/27 07:35:02;;;;;;;3.27;1.00;;;11.00;99.90;;;;;;5094823;28;20484;-68
2022/09/27 07:37:32;;;;;;;2.60;1.27;;;11.00;99.90;;;;;;5114976;28;20460;-68
2022/09/27 07:39:59;;;;;;;1.20;0.80;;;11.00;99.90;;;;;;5114545;28;20504;-68
2022/09/27 07:42:27;;;;;;;4.23;0.70;;;11.00;99.90;;;;;;5114676;28;20978;-68
2022/09/27 07:44:54;;;;;;;1.27;0.73;;;11.10;99.90;;;;;;5101320;28;20936;-68
2022/09/27 07:47:22;;;;;;;1.37;1.17;;;11.20;99.90;;;;;;5094061;28;20552;-68
2022/09/27 07:49:50;;;;;;;2.97;0.90;;;11.40;99.90;;;;;;5094051;28;20497;-68
2022/09/27 07:52:17;;;;;;;1.93;1.40;;;11.70;99.90;;;;;;5094264;28;20478;-68
2022/09/27 07:54:45;;;;;;;1.70;0.80;;;11.80;99.00;;;;;;5094102;28;20824;-67
2022/09/27 07:57:12;;;;;;;3.33;0.90;;;11.70;98.50;;;;;;5093729;28;20470;-68
2022/09/27 07:59:41;;;;;;;1.77;1.30;;;11.70;98.70;;;;;;5094110;28;20544;-68
2022/09/27 08:02:13;;;;;;;1.93;1.10;;;11.60;98.70;;;;;;5094057;28;20446;-68
2022/09/27 08:04:42;;;;;;;3.00;1.33;;;11.60;98.60;;;;;;5093963;28;20444;-68
2022/09/27 08:07:09;;;;;;;1.00;0.70;;;11.60;98.80;;;;;;5093904;28;20458;-68
2022/09/27 08:09:36;;;;;;;1.80;0.93;;;11.60;98.70;;;;;;5093957;28;20525;-67
2022/09/27 08:12:04;;;;;;;6.00;1.10;;;11.50;98.70;;;;;;5093904;28;20479;-68
2022/09/27 08:14:31;;;;;;;5.13;1.00;;;11.60;99.00;;;;;;5093981;28;20454;-68
2022/09/27 08:16:58;;;;;;;3.60;1.40;;;11.70;98.90;;;;;;5093389;28;21009;-68
2022/09/27 08:19:25;;;;;;;1.53;1.10;;;11.80;98.20;;;;;;5093849;28;20451;-68
2022/09/27 08:21:53;;;;;;;1.30;1.20;;;11.90;98.10;;;;;;5093579;28;20491;-68
2022/09/27 08:24:20;;;;;;;1.67;1.07;;;12.10;97.50;;;;;;5093490;28;20493;-68
2022/09/27 08:26:47;;;;;;;1.37;1.00;;;12.30;97.20;;;;;;5104632;28;20485;-68
2022/09/27 08:29:16;;;;;;;1.77;0.90;;;12.40;96.70;;;;;;5114215;28;20476;-68
2022/09/27 08:31:45;;;;;;;1.10;0.80;;;12.50;96.30;;;;;;5093266;28;20844;-69
2022/09/27 08:34:12;;;;;;;0.80;0.80;;;12.60;96.30;;;;;;5093674;28;20475;-69
2022/09/27 08:36:39;;;;;;;0.90;0.90;;;12.80;95.90;;;;;;5093463;28;20506;-68
2022/09/27 08:39:06;;;;;;;2.00;1.00;;;12.90;95.70;;;;;;5093285;28;21027;-69
2022/09/27 08:41:38;;;;;;;1.13;0.70;;;13.00;95.60;;;;;;5093434;28;20560;-69
2022/09/27 08:44:11;;;;;;;2.70;1.13;;;13.00;95.60;;;;;;5093783;28;20443;-68
2022/09/27 08:46:52;;;;;;;1.50;0.80;;;13.20;95.50;;;;;;5093734;28;21008;-68
2022/09/27 08:49:23;;;;;;;1.97;0.90;;;13.40;94.90;;;;;;5094543;28;20480;-69
2022/09/27 08:51:53;;;;;;;2.97;1.30;;;13.40;94.80;;;;;;5095330;28;20856;-68
2022/09/27 08:54:24;;;;;;;2.00;1.37;;;13.60;94.80;;;;;;5096185;28;20451;-68
2022/09/27 08:56:53;;;;;;;4.57;1.20;;;13.80;93.90;;;;;;5097930;28;20583;-69
2022/09/27 08:59:23;;;;;;;1.07;1.00;;;13.80;93.20;;;;;;5098852;28;20946;-69
2022/09/27 09:01:53;;;;;;;3.83;1.00;;;13.80;92.90;;;;;;5095716;28;20446;-68
2022/09/27 09:04:28;;;;;;;1.97;1.27;;;13.80;93.10;;;;;;5095066;28;20802;-68
2022/09/27 09:07:02;;;;;;;1.47;1.30;;;13.90;93.00;;;;;;5093880;28;20791;-69
2022/09/27 09:09:37;;;;;;;1.93;1.30;;;13.90;92.40;;;;;;5093088;28;20876;-68
2022/09/27 09:15:16;;;;;;;1.50;1.10;;;14.00;92.10;;;;;;5093085;28;20447;-72
2022/09/27 09:17:55;;;;;;;1.10;0.83;;;14.10;91.70;;;;;;5092900;28;20950;-68
2022/09/27 09:20:39;;;;;;;2.20;1.07;;;14.10;92.20;;;;;;5093230;28;20458;-67
2022/09/27 09:23:26;;;;;;;7.07;1.17;;;14.20;92.10;;;;;;5093272;28;20460;-69
2022/09/27 09:26:01;;;;;;;2.27;1.00;;;14.30;91.10;;;;;;5093196;28;20465;-68
2022/09/27 09:28:42;;;;;;;5.17;1.03;;;14.40;91.20;;;;;;5092796;28;20441;-68
2022/09/27 09:31:19;;;;;;;3.53;1.23;;;14.40;90.20;;;;;;5092858;28;21001;-68
2022/09/27 09:33:55;;;;;;;2.57;1.10;;;14.40;90.40;;;;;;5096722;28;20478;-66
2022/09/27 09:36:29;;;;;;;1.70;1.07;;;14.50;90.40;;;;;;5096751;28;20494;-66
2022/09/27 09:39:02;;;;;;;1.57;1.47;;;14.50;90.10;;;;;;5096364;28;20459;-66
2022/09/27 09:41:33;;;;;;;2.10;1.40;;;14.60;90.80;;;;;;5101506;28;20863;-66
2022/09/27 09:44:04;;;;;;;3.87;1.80;;;14.40;90.30;;;;;;5117229;28;20424;-65
2022/09/27 09:46:36;;;;;;;5.43;1.40;;;14.00;90.30;;;;;;5116925;28;20469;-66
2022/09/27 09:49:14;;;;;;;1.50;1.40;;;13.80;92.60;;;;;;5116793;28;20928;-66
2022/09/27 09:51:46;;;;;;;4.60;2.10;;;13.60;93.00;;;;;;5096256;28;20963;-65
2022/09/27 09:54:20;;;;;;;3.30;2.40;;;13.30;93.70;;;;;;5095819;28;20549;-67
2022/09/27 09:56:52;;;;;;;2.27;2.07;;;13.10;94.80;;;;;;5096398;28;20538;-67
2022/09/27 09:59:25;;;;;;;2.30;1.93;;;13.10;95.80;;;;;;5096074;28;20459;-67
2022/09/27 10:01:56;;;;;;;3.50;2.30;;;13.10;96.20;;;;;;5095518;28;20474;-68
2022/09/27 10:04:26;;;;;;;5.47;2.13;;;13.30;96.60;;;;;;5096490;28;20550;-67
2022/09/27 10:06:56;;;;;;;3.50;2.67;;;13.40;96.40;;;;;;5096364;28;20768;-67
2022/09/27 10:09:25;;;;;;;2.50;2.30;;;13.50;96.20;;;;;;5096234;28;20449;-67
2022/09/27 10:11:52;;;;;;;2.80;2.50;;;13.60;96.00;;;;;;5096167;28;20445;-67
2022/09/27 10:14:21;;;;;;;2.83;2.07;;;13.70;95.40;;;;;;5096711;28;20451;-67
2022/09/27 10:16:53;;;;;;;3.60;2.00;;;13.70;95.20;;;;;;5095714;28;20487;-67
2022/09/27 10:19:28;;;;;;;3.47;3.10;;;13.60;96.30;;;;;;5096191;28;20450;-66
2022/09/27 10:22:01;;;;;;;2.00;1.90;;;13.60;95.10;;;;;;5096142;28;20437;-66
2022/09/27 10:24:28;;;;;;;5.53;2.07;;;13.50;95.50;;;;;;5096276;28;21000;-67
2022/09/27 10:26:59;;;;;;;4.23;2.60;;;13.60;95.60;;;;;;5095838;28;20462;-66
2022/09/27 10:29:31;;;;;;;3.90;2.60;;;13.70;95.30;;;;;;5095895;28;20525;-67
2022/09/27 10:32:02;;;;;;;3.37;2.80;;;13.60;95.30;;;;;;5095876;28;20522;-66
2022/09/27 10:34:34;;;;;;;5.00;2.50;;;13.50;94.90;;;;;;5095657;28;20440;-67
2022/09/27 10:37:17;;;;;;;5.40;3.30;;;13.40;95.40;;;;;;5096209;28;20579;-66
2022/09/27 10:39:45;;;;;;;4.03;3.20;;;13.40;96.00;;;;;;5095368;28;20459;-66
2022/09/27 10:42:23;;;;;;;4.87;3.13;;;13.40;95.70;;;;;;5095561;28;20544;-67
2022/09/27 10:44:50;;;;;;;6.20;2.80;;;13.50;95.70;;;;;;5094974;28;21040;-67
2022/09/27 10:47:21;;;;;;;5.73;3.23;;;13.50;95.80;;;;;;5095473;28;20547;-67
2022/09/27 10:49:51;;;;;;;3.40;2.70;;;13.60;96.20;;;;;;5095530;28;20441;-67
2022/09/27 10:52:20;;;;;;;5.33;3.40;;;13.60;95.50;;;;;;5095528;28;20453;-68
2022/09/27 10:54:55;;;;;;;10.50;3.73;;;13.70;95.20;;;;;;5110837;28;20582;-67
2022/09/27 10:57:25;;;;;;;5.67;3.23;;;13.70;95.00;;;;;;5095166;28;20474;-67
2022/09/27 10:59:54;;;;;;;3.93;3.50;;;13.80;95.40;;;;;;5095185;28;20542;-68
2022/09/27 11:02:24;;;;;;;9.33;3.70;;;13.90;95.40;;;;;;5095049;28;20466;-68
2022/09/27 11:05:11;;;;;;;10.67;4.03;;;13.90;94.20;;;;;;5094978;28;20485;-68
2022/09/27 11:07:48;;;;;;;3.70;3.40;;;13.90;93.60;;;;;;5094766;28;20521;-68
2022/09/27 11:10:30;;;;;;;5.33;3.30;;;14.00;94.60;;;;;;5095245;28;20515;-68
2022/09/27 11:13:13;;;;;;;4.67;3.37;;;14.20;93.60;;;;;;5094846;28;20444;-68
2022/09/27 11:16:03;;;;;;;3.77;2.43;;;14.60;93.80;;;;;;5095538;28;20466;-68
2022/09/27 11:18:38;;;;;;;3.63;2.37;;;14.90;92.30;;;;;;5095791;28;20458;-68
2022/09/27 11:21:18;;;;;;;2.73;2.53;;;15.20;91.70;;;;;;5095340;28;20461;-68
2022/09/27 11:24:08;;;;;;;2.60;2.30;;;15.50;91.10;;;;;;5094852;28;20830;-68
2022/09/27 11:26:47;;;;;;;3.37;2.37;;;15.90;90.40;;;;;;5094233;28;20475;-69
2022/09/27 11:29:24;;;;;;;2.60;2.20;;;16.20;89.70;;;;;;5095825;28;20428;-68
2022/09/27 11:32:05;;;;;;;2.70;1.97;;;16.40;85.90;;;;;;5115393;28;20886;-68
2022/09/27 11:34:47;;;;;;;2.77;1.83;;;16.40;83.40;;;;;;5111780;28;20595;-69
2022/09/27 11:37:29;;;;;;;4.63;2.50;;;16.50;81.70;;;;;;5094657;28;20920;-68
2022/09/27 11:40:13;;;;;;;2.50;1.70;;;16.80;82.60;;;;;;5094453;28;20537;-68
2022/09/27 11:43:14;;;;;;;5.50;1.50;;;17.00;78.60;;;;;;5095746;28;20432;-69
2022/09/27 11:45:53;;;;;;;2.50;1.57;;;16.90;76.60;;;;;;5089222;28;20479;-69
2022/09/27 11:48:39;;;;;;;2.87;1.87;;;16.60;78.90;;;;;;5094876;28;20431;-69
2022/09/27 11:51:26;;;;;;;3.40;1.40;;;16.50;78.40;;;;;;5110676;28;20545;-69
2022/09/27 11:54:13;;;;;;;2.97;1.77;;;16.10;78.40;;;;;;5116165;28;20443;-68
2022/09/27 11:56:48;;;;;;;3.20;1.57;;;15.60;79.90;;;;;;5103956;28;20486;-67
2022/09/27 11:59:50;;;;;;;2.47;1.63;;;14.90;83.20;;;;;;5110698;28;20475;-67
2022/09/27 12:02:37;;;;;;;2.60;2.13;;;14.30;88.70;;;;;;5093499;28;20812;-67
2022/09/27 12:05:31;;;;;;;3.27;2.87;;;13.90;90.60;;;;;;5093163;28;21016;-67
2022/09/27 12:08:12;;;;;;;2.80;2.60;;;13.70;91.90;;;;;;5093395;28;20467;-68
2022/09/27 12:10:44;;;;;;;4.40;1.83;;;13.70;92.20;;;;;;5093815;28;20834;-68
2022/09/27 12:13:17;;;;;;;3.70;1.10;;;13.70;92.80;;;;;;5093995;28;20440;-68
2022/09/27 12:15:47;;;;;;;1.70;1.60;;;13.60;93.00;;;;;;5093663;28;20475;-70
2022/09/27 12:18:21;;;;;;;1.70;1.50;;;13.60;93.80;;;;;;5093895;28;20466;-70
2022/09/27 12:20:48;;;;;;;3.50;1.20;;;13.70;94.10;;;;;;5093711;28;20431;-69
2022/09/27 12:23:20;;;;;;;2.90;1.63;;;13.80;94.30;;;;;;5093504;28;20949;-70
2022/09/27 12:25:53;;;;;;;2.70;2.03;;;13.80;94.30;;;;;;5093775;28;20476;-71
2022/09/27 12:28:26;;;;;;;2.60;1.70;;;13.70;94.40;;;;;;5104895;28;20488;-70
2022/09/27 12:30:57;;;;;;;3.77;1.70;;;13.50;95.10;;;;;;5098643;28;20832;-70
2022/09/27 12:33:33;;;;;;;2.83;2.00;;;13.30;95.00;;;;;;5093885;28;20457;-70
2022/09/27 12:36:06;;;;;;;1.63;1.47;;;13.20;95.80;;;;;;5093670;28;20470;-70
2022/09/27 12:38:40;;;;;;;0.77;0.77;;;13.00;94.80;;;;;;5093631;28;20448;-69
2022/09/27 12:41:12;;;;;;;0.90;0.80;;;13.00;95.10;;;;;;5093758;28;20439;-69
2022/09/27 12:43:41;;;;;;;1.50;1.20;;;13.00;95.60;;;;;;5093764;28;20431;-68
2022/09/27 12:46:17;;;;;;;1.47;1.37;;;12.90;95.30;;;;;;5093340;28;20483;-69
2022/09/27 12:48:52;;;;;;;3.13;1.30;;;12.70;96.00;;;;;;5093708;28;20439;-69
2022/09/27 12:51:21;;;;;;;2.47;1.40;;;12.80;96.90;;;;;;5093600;28;20444;-70
2022/09/27 12:54:04;;;;;;;1.50;1.40;;;12.80;97.00;;;;;;5093621;28;20453;-70
2022/09/27 12:56:48;;;;;;;1.60;1.50;;;13.00;97.30;;;;;;5092897;28;21100;-70
2022/09/27 12:59:34;;;;;;;2.80;2.13;;;13.10;97.20;;;;;;5093467;28;20460;-71
2022/09/27 13:02:32;;;;;;;1.27;1.17;;;13.10;96.90;;;;;;5093150;28;20927;-70
2022/09/27 13:05:47;;;;;;;1.50;1.40;;;13.10;96.00;;;;;;5093358;28;20471;-70
2022/09/27 13:08:25;;;;;;;1.20;1.03;;;13.10;96.80;;;;;;5034829;28;20982;-71
2022/09/27 13:10:59;;;;;;;0.97;0.90;;;13.20;95.90;;;;;;5087432;28;20455;-69
2022/09/27 13:13:28;;;;;;;1.27;1.17;;;13.50;95.80;;;;;;5097484;28;20496;-70
2022/09/27 13:15:57;;;;;;;1.80;0.80;;;13.70;94.80;;;;;;5097274;28;20511;-70